This is the latest recevied weather packets stored in our database for station/object DL7GAI-7. If no packets are shown the sender has not sent any weather packets the latest 10 day(s).
| Time | Temp. | Humidity | Pressure | Rain* | Wind** | Luminosity | Snow |
|---|---|---|---|---|---|---|---|
| 1777543455 | 12.78° C | 36% | 1023.8 hPa | 0 mm | 5.81 m/s, 90° | - | - |
| 1777542627 | 12.78° C | 36% | 1023.8 hPa | 0 mm | 5.81 m/s, 90° | - | - |
| 1777541820 | 12.78° C | 36% | 1023.8 hPa | 0 mm | 5.81 m/s, 90° | - | - |
| 1777541034 | 11.67° C | 38% | 1024 hPa | 0 mm | 5.36 m/s, 90° | - | - |
| 1777540180 | 11.67° C | 38% | 1024 hPa | 0 mm | 5.36 m/s, 90° | - | - |
| 1777539337 | 11.67° C | 38% | 1024 hPa | 0 mm | 5.36 m/s, 90° | - | - |
| 1777538527 | 11.67° C | 38% | 1024 hPa | 0 mm | 5.36 m/s, 90° | - | - |
| 1777537732 | 10.56° C | 40% | 1024.3 hPa | 0 mm | 4.02 m/s, 90° | - | - |
| 1777537000 | 10.56° C | 40% | 1024.3 hPa | 0 mm | 4.02 m/s, 90° | - | - |
| 1777536155 | 9.44° C | 43% | 1024.4 hPa | 0 mm | 2.68 m/s, 90° | - | - |
| 1777535355 | 9.44° C | 43% | 1024.4 hPa | 0 mm | 2.68 m/s, 90° | - | - |
| 1777534535 | 8.33° C | 45% | 1024.7 hPa | 0 mm | 1.79 m/s, 45° | - | - |
| 1777533725 | 8.33° C | 45% | 1024.7 hPa | 0 mm | 1.79 m/s, 45° | - | - |
| 1777532875 | 8.33° C | 45% | 1024.7 hPa | 0 mm | 1.79 m/s, 45° | - | - |
| 1777532039 | 7.22° C | 47% | 1024.7 hPa | 0 mm | 2.68 m/s, 0° | - | - |
| 1777531235 | 7.22° C | 47% | 1024.7 hPa | 0 mm | 2.68 m/s, 0° | - | - |
| 1777530415 | 7.22° C | 48% | 1024.6 hPa | 0 mm | 1.79 m/s, 45° | - | - |
| 1777529585 | 7.22° C | 48% | 1024.6 hPa | 0 mm | 1.79 m/s, 45° | - | - |
| 1777528782 | 6.67° C | 51% | 1024.5 hPa | 0 mm | 3.13 m/s, 45° | - | - |
| 1777528050 | 6.67° C | 51% | 1024.5 hPa | 0 mm | 3.13 m/s, 45° | - | - |
| 1777527215 | 6.11° C | 54% | 1024.4 hPa | 0 mm | 1.79 m/s, 45° | - | - |
| 1777526360 | 6.11° C | 54% | 1024.4 hPa | 0 mm | 1.79 m/s, 45° | - | - |
| 1777525475 | 6.67° C | 50% | 1024.2 hPa | 0 mm | 2.68 m/s, 45° | - | - |
| 1777524660 | 6.67° C | 50% | 1024.2 hPa | 0 mm | 2.68 m/s, 45° | - | - |
| 1777523835 | 6.67° C | 50% | 1024.2 hPa | 0 mm | 2.68 m/s, 45° | - | - |
* Rain latest hour (hover to see other rain measurements)
** Current wind speed in m/s (hover to see current wind gust speed)